sensor_id;sensor_type;location;lat;lon;timestamp;P1;durP1;ratioP1;P2;durP2;ratioP2
22894;SDS011;11614;52.494;6.976;2022-11-04T00:00:15;4.60;;;2.60;;
22894;SDS011;11614;52.494;6.976;2022-11-04T00:02:43;4.87;;;3.23;;
22894;SDS011;11614;52.494;6.976;2022-11-04T00:08:00;5.53;;;2.47;;
22894;SDS011;11614;52.494;6.976;2022-11-04T00:10:50;2.93;;;2.17;;
22894;SDS011;11614;52.494;6.976;2022-11-04T00:13:37;3.40;;;1.53;;
22894;SDS011;11614;52.494;6.976;2022-11-04T00:16:03;3.10;;;1.70;;
22894;SDS011;11614;52.494;6.976;2022-11-04T00:18:48;2.63;;;1.00;;
22894;SDS011;11614;52.494;6.976;2022-11-04T00:21:14;2.60;;;1.03;;
22894;SDS011;11614;52.494;6.976;2022-11-04T00:23:59;3.70;;;1.20;;
22894;SDS011;11614;52.494;6.976;2022-11-04T00:26:43;0.60;;;0.60;;
22894;SDS011;11614;52.494;6.976;2022-11-04T00:29:28;3.10;;;1.83;;
22894;SDS011;11614;52.494;6.976;2022-11-04T00:31:54;2.53;;;1.40;;
22894;SDS011;11614;52.494;6.976;2022-11-04T00:34:39;2.47;;;1.27;;
22894;SDS011;11614;52.494;6.976;2022-11-04T00:37:05;2.50;;;1.27;;
22894;SDS011;11614;52.494;6.976;2022-11-04T00:39:31;5.57;;;1.90;;
22894;SDS011;11614;52.494;6.976;2022-11-04T00:41:57;2.80;;;1.13;;
22894;SDS011;11614;52.494;6.976;2022-11-04T00:44:23;3.77;;;1.27;;
22894;SDS011;11614;52.494;6.976;2022-11-04T00:46:49;2.63;;;1.70;;
22894;SDS011;11614;52.494;6.976;2022-11-04T00:49:15;2.60;;;1.20;;
22894;SDS011;11614;52.494;6.976;2022-11-04T00:51:41;2.90;;;1.53;;
22894;SDS011;11614;52.494;6.976;2022-11-04T00:54:07;3.30;;;1.37;;
22894;SDS011;11614;52.494;6.976;2022-11-04T00:56:36;2.23;;;0.73;;
22894;SDS011;11614;52.494;6.976;2022-11-04T00:59:02;1.53;;;0.57;;
22894;SDS011;11614;52.494;6.976;2022-11-04T01:01:28;1.23;;;0.30;;
22894;SDS011;11614;52.494;6.976;2022-11-04T01:03:54;3.13;;;1.50;;
22894;SDS011;11614;52.494;6.976;2022-11-04T01:06:21;2.47;;;1.20;;
22894;SDS011;11614;52.494;6.976;2022-11-04T01:08:48;3.40;;;1.70;;
22894;SDS011;11614;52.494;6.976;2022-11-04T01:11:19;3.53;;;1.80;;
22894;SDS011;11614;52.494;6.976;2022-11-04T01:13:44;3.43;;;1.80;;
22894;SDS011;11614;52.494;6.976;2022-11-04T01:16:10;4.53;;;2.80;;
22894;SDS011;11614;52.494;6.976;2022-11-04T01:18:37;3.63;;;1.47;;
22894;SDS011;11614;52.494;6.976;2022-11-04T01:21:04;3.87;;;2.33;;
22894;SDS011;11614;52.494;6.976;2022-11-04T01:23:32;4.87;;;2.80;;
22894;SDS011;11614;52.494;6.976;2022-11-04T01:25:59;3.53;;;1.83;;
22894;SDS011;11614;52.494;6.976;2022-11-04T01:28:25;6.73;;;3.23;;
22894;SDS011;11614;52.494;6.976;2022-11-04T01:30:51;3.77;;;2.00;;
22894;SDS011;11614;52.494;6.976;2022-11-04T01:33:17;8.67;;;3.97;;
22894;SDS011;11614;52.494;6.976;2022-11-04T01:35:43;3.57;;;1.80;;
22894;SDS011;11614;52.494;6.976;2022-11-04T01:38:09;6.07;;;2.87;;
22894;SDS011;11614;52.494;6.976;2022-11-04T01:40:38;5.33;;;3.33;;
22894;SDS011;11614;52.494;6.976;2022-11-04T01:43:09;11.30;;;3.87;;
22894;SDS011;11614;52.494;6.976;2022-11-04T01:45:42;9.30;;;4.13;;
22894;SDS011;11614;52.494;6.976;2022-11-04T01:48:14;5.83;;;3.57;;
22894;SDS011;11614;52.494;6.976;2022-11-04T01:50:50;5.10;;;3.17;;
22894;SDS011;11614;52.494;6.976;2022-11-04T01:53:19;6.67;;;4.03;;
22894;SDS011;11614;52.494;6.976;2022-11-04T01:55:50;7.37;;;3.83;;
22894;SDS011;11614;52.494;6.976;2022-11-04T01:58:20;8.70;;;4.17;;
22894;SDS011;11614;52.494;6.976;2022-11-04T02:00:49;7.93;;;4.33;;
22894;SDS011;11614;52.494;6.976;2022-11-04T02:03:17;7.67;;;5.30;;
22894;SDS011;11614;52.494;6.976;2022-11-04T02:05:47;6.20;;;3.43;;
22894;SDS011;11614;52.494;6.976;2022-11-04T02:08:14;11.90;;;6.20;;
22894;SDS011;11614;52.494;6.976;2022-11-04T02:10:41;8.80;;;5.93;;
22894;SDS011;11614;52.494;6.976;2022-11-04T02:13:29;8.33;;;5.27;;
22894;SDS011;11614;52.494;6.976;2022-11-04T02:16:10;9.07;;;5.00;;
22894;SDS011;11614;52.494;6.976;2022-11-04T02:24:08;11.20;;;7.33;;
22894;SDS011;11614;52.494;6.976;2022-11-04T02:29:37;11.23;;;7.53;;
22894;SDS011;11614;52.494;6.976;2022-11-04T02:43:44;10.30;;;4.67;;
22894;SDS011;11614;52.494;6.976;2022-11-04T02:48:53;6.10;;;3.10;;
22894;SDS011;11614;52.494;6.976;2022-11-04T02:51:28;7.03;;;3.70;;
22894;SDS011;11614;52.494;6.976;2022-11-04T02:57:09;7.57;;;4.07;;
22894;SDS011;11614;52.494;6.976;2022-11-04T02:59:51;6.40;;;4.10;;
22894;SDS011;11614;52.494;6.976;2022-11-04T03:02:36;6.70;;;3.10;;
22894;SDS011;11614;52.494;6.976;2022-11-04T03:05:11;6.97;;;3.97;;
22894;SDS011;11614;52.494;6.976;2022-11-04T03:07:46;9.00;;;5.97;;
22894;SDS011;11614;52.494;6.976;2022-11-04T03:13:23;7.20;;;5.17;;
22894;SDS011;11614;52.494;6.976;2022-11-04T03:15:52;8.00;;;4.97;;
22894;SDS011;11614;52.494;6.976;2022-11-04T03:20:57;6.83;;;3.43;;
22894;SDS011;11614;52.494;6.976;2022-11-04T03:23:26;8.37;;;4.57;;
22894;SDS011;11614;52.494;6.976;2022-11-04T03:25:54;8.33;;;5.10;;
22894;SDS011;11614;52.494;6.976;2022-11-04T03:30:52;5.73;;;3.00;;
22894;SDS011;11614;52.494;6.976;2022-11-04T03:35:48;6.87;;;4.60;;
22894;SDS011;11614;52.494;6.976;2022-11-04T03:38:14;11.70;;;3.70;;
22894;SDS011;11614;52.494;6.976;2022-11-04T03:40:39;6.77;;;3.57;;
22894;SDS011;11614;52.494;6.976;2022-11-04T03:43:07;3.80;;;2.80;;
22894;SDS011;11614;52.494;6.976;2022-11-04T03:45:46;7.30;;;3.07;;
22894;SDS011;11614;52.494;6.976;2022-11-04T03:48:12;6.70;;;4.03;;
22894;SDS011;11614;52.494;6.976;2022-11-04T03:50:42;6.60;;;2.63;;
22894;SDS011;11614;52.494;6.976;2022-11-04T03:53:09;5.13;;;2.13;;
22894;SDS011;11614;52.494;6.976;2022-11-04T03:58:32;5.67;;;3.03;;
22894;SDS011;11614;52.494;6.976;2022-11-04T04:04:03;5.97;;;2.27;;
22894;SDS011;11614;52.494;6.976;2022-11-04T04:06:33;5.00;;;2.67;;
22894;SDS011;11614;52.494;6.976;2022-11-04T04:09:20;6.13;;;2.50;;
22894;SDS011;11614;52.494;6.976;2022-11-04T04:11:54;8.83;;;3.37;;
22894;SDS011;11614;52.494;6.976;2022-11-04T04:19:44;9.40;;;5.23;;
22894;SDS011;11614;52.494;6.976;2022-11-04T04:22:13;9.73;;;5.40;;
22894;SDS011;11614;52.494;6.976;2022-11-04T04:24:44;6.37;;;3.53;;
22894;SDS011;11614;52.494;6.976;2022-11-04T04:27:30;6.70;;;3.97;;
22894;SDS011;11614;52.494;6.976;2022-11-04T04:29:59;9.77;;;5.50;;
22894;SDS011;11614;52.494;6.976;2022-11-04T04:32:31;6.80;;;3.27;;
22894;SDS011;11614;52.494;6.976;2022-11-04T04:35:01;9.33;;;5.47;;
22894;SDS011;11614;52.494;6.976;2022-11-04T04:37:45;10.40;;;4.27;;
22894;SDS011;11614;52.494;6.976;2022-11-04T04:40:14;9.93;;;6.17;;
22894;SDS011;11614;52.494;6.976;2022-11-04T04:43:01;10.23;;;5.40;;
22894;SDS011;11614;52.494;6.976;2022-11-04T04:45:50;12.87;;;6.57;;
22894;SDS011;11614;52.494;6.976;2022-11-04T04:48:17;8.70;;;4.40;;
22894;SDS011;11614;52.494;6.976;2022-11-04T04:50:44;12.37;;;6.53;;
22894;SDS011;11614;52.494;6.976;2022-11-04T04:53:13;10.27;;;5.37;;
22894;SDS011;11614;52.494;6.976;2022-11-04T04:55:39;8.83;;;4.70;;
22894;SDS011;11614;52.494;6.976;2022-11-04T04:58:05;9.10;;;6.17;;
22894;SDS011;11614;52.494;6.976;2022-11-04T05:00:31;13.60;;;6.53;;
22894;SDS011;11614;52.494;6.976;2022-11-04T05:02:57;8.57;;;3.73;;
22894;SDS011;11614;52.494;6.976;2022-11-04T05:05:23;9.20;;;4.80;;
22894;SDS011;11614;52.494;6.976;2022-11-04T05:07:49;12.10;;;6.93;;
22894;SDS011;11614;52.494;6.976;2022-11-04T05:10:16;9.93;;;6.27;;
22894;SDS011;11614;52.494;6.976;2022-11-04T05:12:42;11.57;;;5.73;;
22894;SDS011;11614;52.494;6.976;2022-11-04T05:15:27;8.33;;;4.60;;
22894;SDS011;11614;52.494;6.976;2022-11-04T05:17:54;9.77;;;4.23;;
22894;SDS011;11614;52.494;6.976;2022-11-04T05:20:21;12.73;;;7.63;;
22894;SDS011;11614;52.494;6.976;2022-11-04T05:22:47;12.20;;;6.20;;
22894;SDS011;11614;52.494;6.976;2022-11-04T05:25:13;10.87;;;4.97;;
22894;SDS011;11614;52.494;6.976;2022-11-04T05:27:39;12.87;;;5.57;;
22894;SDS011;11614;52.494;6.976;2022-11-04T05:30:05;12.90;;;7.40;;
22894;SDS011;11614;52.494;6.976;2022-11-04T05:32:31;11.20;;;4.83;;
22894;SDS011;11614;52.494;6.976;2022-11-04T05:34:57;11.70;;;5.83;;
22894;SDS011;11614;52.494;6.976;2022-11-04T05:37:23;13.57;;;6.37;;
22894;SDS011;11614;52.494;6.976;2022-11-04T05:39:50;9.37;;;6.50;;
22894;SDS011;11614;52.494;6.976;2022-11-04T05:42:16;14.53;;;7.27;;
22894;SDS011;11614;52.494;6.976;2022-11-04T05:44:42;8.43;;;5.00;;
22894;SDS011;11614;52.494;6.976;2022-11-04T05:47:08;13.37;;;6.77;;
22894;SDS011;11614;52.494;6.976;2022-11-04T05:49:34;9.73;;;5.53;;
22894;SDS011;11614;52.494;6.976;2022-11-04T05:52:00;8.77;;;4.23;;
22894;SDS011;11614;52.494;6.976;2022-11-04T05:54:26;16.03;;;8.20;;
22894;SDS011;11614;52.494;6.976;2022-11-04T05:56:52;9.63;;;6.67;;
22894;SDS011;11614;52.494;6.976;2022-11-04T05:59:18;9.73;;;5.80;;
22894;SDS011;11614;52.494;6.976;2022-11-04T06:01:44;12.73;;;7.00;;
22894;SDS011;11614;52.494;6.976;2022-11-04T06:04:14;14.40;;;8.27;;
22894;SDS011;11614;52.494;6.976;2022-11-04T06:06:41;13.80;;;6.80;;
22894;SDS011;11614;52.494;6.976;2022-11-04T06:09:07;17.00;;;8.53;;
22894;SDS011;11614;52.494;6.976;2022-11-04T06:11:34;20.30;;;8.73;;
22894;SDS011;11614;52.494;6.976;2022-11-04T06:14:00;17.30;;;8.73;;
22894;SDS011;11614;52.494;6.976;2022-11-04T06:16:26;13.80;;;7.07;;
22894;SDS011;11614;52.494;6.976;2022-11-04T06:18:52;18.47;;;10.57;;
22894;SDS011;11614;52.494;6.976;2022-11-04T06:21:26;19.90;;;10.33;;
22894;SDS011;11614;52.494;6.976;2022-11-04T06:23:56;17.77;;;10.27;;
22894;SDS011;11614;52.494;6.976;2022-11-04T06:26:24;21.77;;;10.47;;
22894;SDS011;11614;52.494;6.976;2022-11-04T06:28:51;21.43;;;11.43;;
22894;SDS011;11614;52.494;6.976;2022-11-04T06:31:17;18.67;;;9.97;;
22894;SDS011;11614;52.494;6.976;2022-11-04T06:33:43;24.13;;;13.17;;
22894;SDS011;11614;52.494;6.976;2022-11-04T06:36:11;24.90;;;13.27;;
22894;SDS011;11614;52.494;6.976;2022-11-04T06:38:38;26.33;;;12.93;;
22894;SDS011;11614;52.494;6.976;2022-11-04T06:41:05;32.03;;;16.93;;
22894;SDS011;11614;52.494;6.976;2022-11-04T06:43:31;27.37;;;13.30;;
22894;SDS011;11614;52.494;6.976;2022-11-04T06:45:58;34.37;;;17.40;;
22894;SDS011;11614;52.494;6.976;2022-11-04T06:48:25;35.53;;;18.03;;
22894;SDS011;11614;52.494;6.976;2022-11-04T06:50:52;42.07;;;20.37;;
22894;SDS011;11614;52.494;6.976;2022-11-04T06:53:18;44.37;;;23.17;;
22894;SDS011;11614;52.494;6.976;2022-11-04T06:55:44;34.30;;;17.03;;
22894;SDS011;11614;52.494;6.976;2022-11-04T06:58:10;46.17;;;23.43;;
22894;SDS011;11614;52.494;6.976;2022-11-04T07:00:36;44.10;;;20.80;;
22894;SDS011;11614;52.494;6.976;2022-11-04T07:03:02;39.77;;;21.20;;
22894;SDS011;11614;52.494;6.976;2022-11-04T07:05:28;49.67;;;24.23;;
22894;SDS011;11614;52.494;6.976;2022-11-04T07:07:54;45.27;;;25.63;;
22894;SDS011;11614;52.494;6.976;2022-11-04T07:10:20;48.10;;;25.53;;
22894;SDS011;11614;52.494;6.976;2022-11-04T07:12:46;55.10;;;28.30;;
22894;SDS011;11614;52.494;6.976;2022-11-04T07:15:12;52.80;;;28.43;;
22894;SDS011;11614;52.494;6.976;2022-11-04T07:17:38;53.40;;;26.60;;
22894;SDS011;11614;52.494;6.976;2022-11-04T07:20:04;49.97;;;28.00;;
22894;SDS011;11614;52.494;6.976;2022-11-04T07:22:30;51.07;;;27.23;;
22894;SDS011;11614;52.494;6.976;2022-11-04T07:24:56;47.83;;;25.30;;
22894;SDS011;11614;52.494;6.976;2022-11-04T07:27:22;53.00;;;28.90;;
22894;SDS011;11614;52.494;6.976;2022-11-04T07:29:48;35.30;;;15.93;;
22894;SDS011;11614;52.494;6.976;2022-11-04T07:32:14;46.67;;;23.90;;
22894;SDS011;11614;52.494;6.976;2022-11-04T07:34:40;48.67;;;26.87;;
22894;SDS011;11614;52.494;6.976;2022-11-04T07:37:06;38.80;;;22.07;;
22894;SDS011;11614;52.494;6.976;2022-11-04T07:39:32;47.83;;;26.37;;
22894;SDS011;11614;52.494;6.976;2022-11-04T07:41:58;44.37;;;22.50;;
22894;SDS011;11614;52.494;6.976;2022-11-04T07:44:24;31.17;;;12.47;;
22894;SDS011;11614;52.494;6.976;2022-11-04T07:46:50;38.77;;;20.77;;
22894;SDS011;11614;52.494;6.976;2022-11-04T07:49:16;37.43;;;20.43;;
22894;SDS011;11614;52.494;6.976;2022-11-04T07:51:42;42.97;;;23.67;;
22894;SDS011;11614;52.494;6.976;2022-11-04T07:54:08;34.90;;;16.77;;
22894;SDS011;11614;52.494;6.976;2022-11-04T07:56:34;38.77;;;22.97;;
22894;SDS011;11614;52.494;6.976;2022-11-04T07:59:00;48.00;;;24.20;;
22894;SDS011;11614;52.494;6.976;2022-11-04T08:01:26;42.33;;;22.93;;
22894;SDS011;11614;52.494;6.976;2022-11-04T08:03:52;29.03;;;15.30;;
22894;SDS011;11614;52.494;6.976;2022-11-04T08:06:18;42.67;;;21.83;;
22894;SDS011;11614;52.494;6.976;2022-11-04T08:08:45;29.03;;;14.37;;
22894;SDS011;11614;52.494;6.976;2022-11-04T08:11:15;29.07;;;14.67;;
22894;SDS011;11614;52.494;6.976;2022-11-04T08:13:43;45.80;;;24.40;;
22894;SDS011;11614;52.494;6.976;2022-11-04T08:16:10;29.37;;;15.40;;
22894;SDS011;11614;52.494;6.976;2022-11-04T08:18:37;38.67;;;21.03;;
22894;SDS011;11614;52.494;6.976;2022-11-04T08:21:04;32.23;;;15.80;;
22894;SDS011;11614;52.494;6.976;2022-11-04T08:23:30;28.17;;;14.50;;
22894;SDS011;11614;52.494;6.976;2022-11-04T08:25:56;40.33;;;21.20;;
22894;SDS011;11614;52.494;6.976;2022-11-04T08:28:22;33.10;;;20.13;;
22894;SDS011;11614;52.494;6.976;2022-11-04T08:31:02;32.97;;;19.57;;
22894;SDS011;11614;52.494;6.976;2022-11-04T08:33:30;36.30;;;21.03;;
22894;SDS011;11614;52.494;6.976;2022-11-04T08:36:07;26.33;;;14.00;;
22894;SDS011;11614;52.494;6.976;2022-11-04T08:38:36;27.97;;;13.93;;
22894;SDS011;11614;52.494;6.976;2022-11-04T08:41:02;30.60;;;17.23;;
22894;SDS011;11614;52.494;6.976;2022-11-04T08:43:29;34.03;;;19.07;;
22894;SDS011;11614;52.494;6.976;2022-11-04T08:45:55;34.07;;;18.07;;
22894;SDS011;11614;52.494;6.976;2022-11-04T08:48:21;33.87;;;18.83;;
22894;SDS011;11614;52.494;6.976;2022-11-04T08:50:48;31.67;;;16.40;;
22894;SDS011;11614;52.494;6.976;2022-11-04T08:53:14;29.17;;;15.93;;
22894;SDS011;11614;52.494;6.976;2022-11-04T08:55:40;30.67;;;16.50;;
22894;SDS011;11614;52.494;6.976;2022-11-04T08:58:06;29.23;;;17.10;;
22894;SDS011;11614;52.494;6.976;2022-11-04T09:00:32;28.07;;;15.50;;
22894;SDS011;11614;52.494;6.976;2022-11-04T09:02:58;30.47;;;17.63;;
22894;SDS011;11614;52.494;6.976;2022-11-04T09:05:24;28.43;;;17.20;;
22894;SDS011;11614;52.494;6.976;2022-11-04T09:07:51;20.23;;;10.63;;
22894;SDS011;11614;52.494;6.976;2022-11-04T09:10:17;27.47;;;16.67;;
22894;SDS011;11614;52.494;6.976;2022-11-04T09:12:42;27.43;;;15.67;;
22894;SDS011;11614;52.494;6.976;2022-11-04T09:15:09;28.70;;;16.07;;
22894;SDS011;11614;52.494;6.976;2022-11-04T09:17:35;30.53;;;18.20;;
22894;SDS011;11614;52.494;6.976;2022-11-04T09:20:01;28.60;;;16.37;;
22894;SDS011;11614;52.494;6.976;2022-11-04T09:22:26;24.37;;;15.37;;
22894;SDS011;11614;52.494;6.976;2022-11-04T09:24:52;27.57;;;16.23;;
22894;SDS011;11614;52.494;6.976;2022-11-04T09:27:18;25.67;;;14.53;;
22894;SDS011;11614;52.494;6.976;2022-11-04T09:29:44;22.60;;;14.73;;
22894;SDS011;11614;52.494;6.976;2022-11-04T09:32:10;20.20;;;11.67;;
22894;SDS011;11614;52.494;6.976;2022-11-04T09:34:36;24.57;;;14.30;;
22894;SDS011;11614;52.494;6.976;2022-11-04T09:37:02;21.07;;;13.53;;
22894;SDS011;11614;52.494;6.976;2022-11-04T09:39:28;13.37;;;8.47;;
22894;SDS011;11614;52.494;6.976;2022-11-04T09:44:55;18.33;;;12.27;;
22894;SDS011;11614;52.494;6.976;2022-11-04T09:47:24;16.73;;;12.63;;
22894;SDS011;11614;52.494;6.976;2022-11-04T09:49:53;17.93;;;11.93;;
22894;SDS011;11614;52.494;6.976;2022-11-04T09:52:25;23.50;;;14.17;;
22894;SDS011;11614;52.494;6.976;2022-11-04T09:54:58;20.67;;;11.43;;
22894;SDS011;11614;52.494;6.976;2022-11-04T09:57:26;19.50;;;12.50;;
22894;SDS011;11614;52.494;6.976;2022-11-04T09:59:52;15.63;;;10.80;;
22894;SDS011;11614;52.494;6.976;2022-11-04T10:07:41;19.77;;;13.40;;
22894;SDS011;11614;52.494;6.976;2022-11-04T10:15:33;14.13;;;6.97;;
22894;SDS011;11614;52.494;6.976;2022-11-04T10:18:08;16.20;;;11.13;;
22894;SDS011;11614;52.494;6.976;2022-11-04T10:28:18;11.13;;;8.10;;
22894;SDS011;11614;52.494;6.976;2022-11-04T10:30:46;16.80;;;9.87;;
22894;SDS011;11614;52.494;6.976;2022-11-04T10:35:52;18.33;;;11.77;;
22894;SDS011;11614;52.494;6.976;2022-11-04T10:40:48;11.30;;;6.37;;
22894;SDS011;11614;52.494;6.976;2022-11-04T10:43:16;12.27;;;8.47;;
22894;SDS011;11614;52.494;6.976;2022-11-04T10:45:48;10.03;;;7.17;;
22894;SDS011;11614;52.494;6.976;2022-11-04T10:48:28;14.90;;;9.47;;
22894;SDS011;11614;52.494;6.976;2022-11-04T10:50:56;10.77;;;6.63;;
22894;SDS011;11614;52.494;6.976;2022-11-04T10:53:23;11.57;;;8.57;;
22894;SDS011;11614;52.494;6.976;2022-11-04T10:58:19;17.53;;;10.73;;
22894;SDS011;11614;52.494;6.976;2022-11-04T11:00:46;13.77;;;9.83;;
22894;SDS011;11614;52.494;6.976;2022-11-04T11:05:46;12.63;;;7.90;;
22894;SDS011;11614;52.494;6.976;2022-11-04T11:08:25;12.00;;;8.73;;
22894;SDS011;11614;52.494;6.976;2022-11-04T11:10:51;14.07;;;8.53;;
22894;SDS011;11614;52.494;6.976;2022-11-04T11:13:23;9.07;;;6.13;;
22894;SDS011;11614;52.494;6.976;2022-11-04T11:15:50;14.27;;;6.03;;
22894;SDS011;11614;52.494;6.976;2022-11-04T11:18:28;10.83;;;6.60;;
22894;SDS011;11614;52.494;6.976;2022-11-04T11:21:07;11.37;;;7.43;;
22894;SDS011;11614;52.494;6.976;2022-11-04T11:23:35;12.90;;;8.10;;
22894;SDS011;11614;52.494;6.976;2022-11-04T11:26:03;10.43;;;7.00;;
22894;SDS011;11614;52.494;6.976;2022-11-04T11:28:31;10.77;;;7.53;;
22894;SDS011;11614;52.494;6.976;2022-11-04T11:31:02;14.17;;;7.63;;
22894;SDS011;11614;52.494;6.976;2022-11-04T11:33:33;13.07;;;6.57;;
22894;SDS011;11614;52.494;6.976;2022-11-04T11:38:58;13.90;;;7.63;;
22894;SDS011;11614;52.494;6.976;2022-11-04T11:41:25;7.10;;;5.10;;
22894;SDS011;11614;52.494;6.976;2022-11-04T11:43:56;11.37;;;6.70;;
22894;SDS011;11614;52.494;6.976;2022-11-04T11:46:23;14.20;;;6.97;;
22894;SDS011;11614;52.494;6.976;2022-11-04T11:48:51;8.63;;;6.70;;
22894;SDS011;11614;52.494;6.976;2022-11-04T11:51:24;10.57;;;6.27;;
22894;SDS011;11614;52.494;6.976;2022-11-04T11:54:01;9.97;;;6.87;;
22894;SDS011;11614;52.494;6.976;2022-11-04T11:56:34;6.13;;;4.10;;
22894;SDS011;11614;52.494;6.976;2022-11-04T11:59:10;11.18;;;6.07;;
22894;SDS011;11614;52.494;6.976;2022-11-04T12:01:47;8.07;;;5.88;;
22894;SDS011;11614;52.494;6.976;2022-11-04T12:04:15;11.18;;;5.30;;
22894;SDS011;11614;52.494;6.976;2022-11-04T12:14:45;10.85;;;6.15;;
22894;SDS011;11614;52.494;6.976;2022-11-04T12:19:58;5.47;;;4.22;;
22894;SDS011;11614;52.494;6.976;2022-11-04T12:22:33;7.80;;;5.78;;
22894;SDS011;11614;52.494;6.976;2022-11-04T12:30:21;11.23;;;6.32;;
22894;SDS011;11614;52.494;6.976;2022-11-04T12:41:01;9.13;;;6.00;;
22894;SDS011;11614;52.494;6.976;2022-11-04T12:46:11;9.67;;;6.03;;
22894;SDS011;11614;52.494;6.976;2022-11-04T12:56:21;15.83;;;9.90;;
22894;SDS011;11614;52.494;6.976;2022-11-04T13:01:35;12.63;;;7.83;;
22894;SDS011;11614;52.494;6.976;2022-11-04T13:04:03;8.23;;;6.23;;
22894;SDS011;11614;52.494;6.976;2022-11-04T13:11:52;13.57;;;9.27;;
22894;SDS011;11614;52.494;6.976;2022-11-04T13:16:47;8.75;;;6.25;;
22894;SDS011;11614;52.494;6.976;2022-11-04T13:19:32;10.77;;;6.30;;
22894;SDS011;11614;52.494;6.976;2022-11-04T13:22:01;10.60;;;6.15;;
22894;SDS011;11614;52.494;6.976;2022-11-04T13:24:32;14.02;;;8.77;;
22894;SDS011;11614;52.494;6.976;2022-11-04T13:27:00;9.63;;;7.33;;
22894;SDS011;11614;52.494;6.976;2022-11-04T13:29:27;7.07;;;4.72;;
22894;SDS011;11614;52.494;6.976;2022-11-04T13:32:15;11.35;;;6.30;;
22894;SDS011;11614;52.494;6.976;2022-11-04T13:37:20;7.22;;;4.68;;
22894;SDS011;11614;52.494;6.976;2022-11-04T13:39:50;14.03;;;9.90;;
22894;SDS011;11614;52.494;6.976;2022-11-04T13:42:20;10.20;;;7.23;;
22894;SDS011;11614;52.494;6.976;2022-11-04T13:44:53;16.53;;;9.37;;
22894;SDS011;11614;52.494;6.976;2022-11-04T13:47:24;10.63;;;8.73;;
22894;SDS011;11614;52.494;6.976;2022-11-04T13:49:51;13.10;;;8.30;;
22894;SDS011;11614;52.494;6.976;2022-11-04T13:52:19;20.57;;;9.30;;
22894;SDS011;11614;52.494;6.976;2022-11-04T14:00:04;7.50;;;5.23;;
22894;SDS011;11614;52.494;6.976;2022-11-04T14:02:35;10.00;;;6.17;;
22894;SDS011;11614;52.494;6.976;2022-11-04T14:24:30;1.73;;;0.53;;
22894;SDS011;11614;52.494;6.976;2022-11-04T14:27:15;1.57;;;0.73;;
22894;SDS011;11614;52.494;6.976;2022-11-04T14:36:21;3.07;;;0.73;;
22894;SDS011;11614;52.494;6.976;2022-11-04T14:45:06;4.03;;;1.33;;
22894;SDS011;11614;52.494;6.976;2022-11-04T14:47:45;4.20;;;1.10;;
22894;SDS011;11614;52.494;6.976;2022-11-04T14:53:32;5.67;;;2.07;;
22894;SDS011;11614;52.494;6.976;2022-11-04T14:59:27;2.47;;;0.87;;
22894;SDS011;11614;52.494;6.976;2022-11-04T15:02:01;13.47;;;6.23;;
22894;SDS011;11614;52.494;6.976;2022-11-04T15:04:41;7.67;;;3.77;;
22894;SDS011;11614;52.494;6.976;2022-11-04T15:07:38;32.83;;;16.37;;
22894;SDS011;11614;52.494;6.976;2022-11-04T15:10:24;23.93;;;11.43;;
22894;SDS011;11614;52.494;6.976;2022-11-04T15:12:51;8.57;;;3.93;;
22894;SDS011;11614;52.494;6.976;2022-11-04T15:15:52;29.90;;;16.70;;
22894;SDS011;11614;52.494;6.976;2022-11-04T15:18:14;19.83;;;11.00;;
22894;SDS011;11614;52.494;6.976;2022-11-04T15:20:51;20.47;;;10.53;;
22894;SDS011;11614;52.494;6.976;2022-11-04T15:23:24;15.20;;;7.50;;
22894;SDS011;11614;52.494;6.976;2022-11-04T15:25:51;4.53;;;2.40;;
22894;SDS011;11614;52.494;6.976;2022-11-04T15:28:18;10.50;;;5.00;;
22894;SDS011;11614;52.494;6.976;2022-11-04T15:30:55;55.20;;;28.70;;
22894;SDS011;11614;52.494;6.976;2022-11-04T15:33:21;9.33;;;4.60;;
22894;SDS011;11614;52.494;6.976;2022-11-04T15:35:49;4.50;;;2.00;;
22894;SDS011;11614;52.494;6.976;2022-11-04T15:38:15;4.03;;;1.90;;
22894;SDS011;11614;52.494;6.976;2022-11-04T15:40:41;3.20;;;1.33;;
22894;SDS011;11614;52.494;6.976;2022-11-04T15:43:08;7.43;;;2.97;;
22894;SDS011;11614;52.494;6.976;2022-11-04T15:45:38;4.50;;;1.40;;
22894;SDS011;11614;52.494;6.976;2022-11-04T15:53:33;1.43;;;0.80;;
22894;SDS011;11614;52.494;6.976;2022-11-04T15:56:04;3.83;;;1.03;;
22894;SDS011;11614;52.494;6.976;2022-11-04T15:58:30;2.63;;;0.70;;
22894;SDS011;11614;52.494;6.976;2022-11-04T16:00:56;4.00;;;0.90;;
22894;SDS011;11614;52.494;6.976;2022-11-04T16:03:22;4.43;;;0.70;;
22894;SDS011;11614;52.494;6.976;2022-11-04T16:06:02;5.33;;;1.20;;
22894;SDS011;11614;52.494;6.976;2022-11-04T16:08:30;4.07;;;1.60;;
22894;SDS011;11614;52.494;6.976;2022-11-04T16:11:09;12.40;;;4.37;;
22894;SDS011;11614;52.494;6.976;2022-11-04T16:13:38;2.63;;;1.30;;
22894;SDS011;11614;52.494;6.976;2022-11-04T16:16:06;5.20;;;1.13;;
22894;SDS011;11614;52.494;6.976;2022-11-04T16:18:43;2.47;;;0.80;;
22894;SDS011;11614;52.494;6.976;2022-11-04T16:21:21;5.67;;;2.17;;
22894;SDS011;11614;52.494;6.976;2022-11-04T16:24:33;2.37;;;0.93;;
22894;SDS011;11614;52.494;6.976;2022-11-04T16:26:44;7.17;;;2.80;;
22894;SDS011;11614;52.494;6.976;2022-11-04T16:34:45;8.67;;;4.60;;
22894;SDS011;11614;52.494;6.976;2022-11-04T16:37:16;4.13;;;1.30;;
22894;SDS011;11614;52.494;6.976;2022-11-04T16:39:42;4.50;;;1.60;;
22894;SDS011;11614;52.494;6.976;2022-11-04T16:42:12;5.20;;;1.43;;
22894;SDS011;11614;52.494;6.976;2022-11-04T16:44:39;3.80;;;1.00;;
22894;SDS011;11614;52.494;6.976;2022-11-04T16:47:11;6.07;;;2.27;;
22894;SDS011;11614;52.494;6.976;2022-11-04T16:49:37;3.67;;;1.70;;
22894;SDS011;11614;52.494;6.976;2022-11-04T16:52:04;8.40;;;2.97;;
22894;SDS011;11614;52.494;6.976;2022-11-04T16:54:37;5.87;;;1.57;;
22894;SDS011;11614;52.494;6.976;2022-11-04T16:57:03;5.33;;;1.70;;
22894;SDS011;11614;52.494;6.976;2022-11-04T16:59:33;4.57;;;1.50;;
22894;SDS011;11614;52.494;6.976;2022-11-04T17:01:59;7.57;;;1.90;;
22894;SDS011;11614;52.494;6.976;2022-11-04T17:04:26;4.30;;;1.40;;
22894;SDS011;11614;52.494;6.976;2022-11-04T17:06:53;5.20;;;2.30;;
22894;SDS011;11614;52.494;6.976;2022-11-04T17:09:21;8.37;;;4.47;;
22894;SDS011;11614;52.494;6.976;2022-11-04T17:11:47;5.43;;;3.67;;
22894;SDS011;11614;52.494;6.976;2022-11-04T17:14:13;3.90;;;1.10;;
22894;SDS011;11614;52.494;6.976;2022-11-04T17:16:40;3.50;;;1.37;;
22894;SDS011;11614;52.494;6.976;2022-11-04T17:19:08;2.37;;;1.10;;
22894;SDS011;11614;52.494;6.976;2022-11-04T17:21:38;3.67;;;1.47;;
22894;SDS011;11614;52.494;6.976;2022-11-04T17:24:04;4.67;;;1.37;;
22894;SDS011;11614;52.494;6.976;2022-11-04T17:26:29;15.13;;;6.17;;
22894;SDS011;11614;52.494;6.976;2022-11-04T17:28:56;5.07;;;1.60;;
22894;SDS011;11614;52.494;6.976;2022-11-04T17:31:23;4.87;;;1.17;;
22894;SDS011;11614;52.494;6.976;2022-11-04T17:33:49;6.20;;;1.73;;
22894;SDS011;11614;52.494;6.976;2022-11-04T17:36:16;3.33;;;1.53;;
22894;SDS011;11614;52.494;6.976;2022-11-04T17:38:43;5.80;;;2.17;;
22894;SDS011;11614;52.494;6.976;2022-11-04T17:41:10;6.50;;;1.83;;
22894;SDS011;11614;52.494;6.976;2022-11-04T17:43:54;6.53;;;1.63;;
22894;SDS011;11614;52.494;6.976;2022-11-04T17:46:26;2.47;;;1.40;;
22894;SDS011;11614;52.494;6.976;2022-11-04T17:49:03;5.23;;;1.77;;
22894;SDS011;11614;52.494;6.976;2022-11-04T17:51:37;4.77;;;1.90;;
22894;SDS011;11614;52.494;6.976;2022-11-04T17:54:04;5.60;;;2.07;;
22894;SDS011;11614;52.494;6.976;2022-11-04T17:56:30;3.67;;;1.83;;
22894;SDS011;11614;52.494;6.976;2022-11-04T17:58:59;5.23;;;2.30;;